sensor_id;sensor_type;location;lat;lon;timestamp;P1;durP1;ratioP1;P2;durP2;ratioP2
31282;SDS011;17915;52.540;13.604;2022-11-20T00:00:45;19.73;;;11.13;;
31282;SDS011;17915;52.540;13.604;2022-11-20T00:03:11;17.23;;;9.27;;
31282;SDS011;17915;52.540;13.604;2022-11-20T00:05:37;18.90;;;9.98;;
31282;SDS011;17915;52.540;13.604;2022-11-20T00:08:03;15.95;;;10.15;;
31282;SDS011;17915;52.540;13.604;2022-11-20T00:10:29;18.87;;;10.73;;
31282;SDS011;17915;52.540;13.604;2022-11-20T00:12:54;13.40;;;10.07;;
31282;SDS011;17915;52.540;13.604;2022-11-20T00:15:20;14.40;;;10.63;;
31282;SDS011;17915;52.540;13.604;2022-11-20T00:17:45;16.70;;;11.73;;
31282;SDS011;17915;52.540;13.604;2022-11-20T00:20:11;16.83;;;10.63;;
31282;SDS011;17915;52.540;13.604;2022-11-20T00:22:37;19.48;;;10.93;;
31282;SDS011;17915;52.540;13.604;2022-11-20T00:25:02;23.23;;;12.63;;
31282;SDS011;17915;52.540;13.604;2022-11-20T00:27:27;19.40;;;10.43;;
31282;SDS011;17915;52.540;13.604;2022-11-20T00:29:53;16.07;;;10.30;;
31282;SDS011;17915;52.540;13.604;2022-11-20T00:32:18;15.70;;;11.00;;
31282;SDS011;17915;52.540;13.604;2022-11-20T00:34:44;11.37;;;9.00;;
31282;SDS011;17915;52.540;13.604;2022-11-20T00:37:09;17.33;;;10.40;;
31282;SDS011;17915;52.540;13.604;2022-11-20T00:39:34;20.60;;;10.60;;
31282;SDS011;17915;52.540;13.604;2022-11-20T00:42:00;17.83;;;11.47;;
31282;SDS011;17915;52.540;13.604;2022-11-20T00:44:25;13.50;;;9.93;;
31282;SDS011;17915;52.540;13.604;2022-11-20T00:46:50;15.63;;;9.40;;
31282;SDS011;17915;52.540;13.604;2022-11-20T00:49:16;19.57;;;10.53;;
31282;SDS011;17915;52.540;13.604;2022-11-20T00:51:41;21.43;;;9.93;;
31282;SDS011;17915;52.540;13.604;2022-11-20T00:54:06;19.50;;;12.90;;
31282;SDS011;17915;52.540;13.604;2022-11-20T00:56:32;18.03;;;10.47;;
31282;SDS011;17915;52.540;13.604;2022-11-20T00:58:59;16.87;;;10.03;;
31282;SDS011;17915;52.540;13.604;2022-11-20T01:01:25;17.88;;;10.10;;
31282;SDS011;17915;52.540;13.604;2022-11-20T01:03:51;15.85;;;11.70;;
31282;SDS011;17915;52.540;13.604;2022-11-20T01:06:22;19.70;;;12.10;;
31282;SDS011;17915;52.540;13.604;2022-11-20T01:08:49;11.85;;;9.02;;
31282;SDS011;17915;52.540;13.604;2022-11-20T01:11:19;18.90;;;10.20;;
31282;SDS011;17915;52.540;13.604;2022-11-20T01:13:47;18.58;;;10.48;;
31282;SDS011;17915;52.540;13.604;2022-11-20T01:16:14;13.95;;;10.27;;
31282;SDS011;17915;52.540;13.604;2022-11-20T01:18:41;17.25;;;10.50;;
31282;SDS011;17915;52.540;13.604;2022-11-20T01:21:12;12.75;;;9.18;;
31282;SDS011;17915;52.540;13.604;2022-11-20T01:23:42;27.50;;;10.57;;
31282;SDS011;17915;52.540;13.604;2022-11-20T01:26:12;19.83;;;9.80;;
31282;SDS011;17915;52.540;13.604;2022-11-20T01:28:39;17.20;;;9.63;;
31282;SDS011;17915;52.540;13.604;2022-11-20T01:33:43;15.57;;;10.40;;
31282;SDS011;17915;52.540;13.604;2022-11-20T01:36:10;16.73;;;10.90;;
31282;SDS011;17915;52.540;13.604;2022-11-20T01:38:36;18.55;;;11.27;;
31282;SDS011;17915;52.540;13.604;2022-11-20T01:41:02;16.40;;;11.40;;
31282;SDS011;17915;52.540;13.604;2022-11-20T01:43:27;18.93;;;10.37;;
31282;SDS011;17915;52.540;13.604;2022-11-20T01:45:58;22.58;;;10.60;;
31282;SDS011;17915;52.540;13.604;2022-11-20T01:48:30;16.08;;;10.50;;
31282;SDS011;17915;52.540;13.604;2022-11-20T01:50:58;16.63;;;10.25;;
31282;SDS011;17915;52.540;13.604;2022-11-20T01:53:25;20.00;;;10.30;;
31282;SDS011;17915;52.540;13.604;2022-11-20T01:55:54;18.70;;;10.52;;
31282;SDS011;17915;52.540;13.604;2022-11-20T01:58:21;22.90;;;11.32;;
31282;SDS011;17915;52.540;13.604;2022-11-20T02:00:50;15.95;;;10.32;;
31282;SDS011;17915;52.540;13.604;2022-11-20T02:03:16;19.57;;;12.00;;
31282;SDS011;17915;52.540;13.604;2022-11-20T02:08:11;16.80;;;9.82;;
31282;SDS011;17915;52.540;13.604;2022-11-20T02:10:37;19.43;;;11.93;;
31282;SDS011;17915;52.540;13.604;2022-11-20T02:13:03;17.37;;;10.37;;
31282;SDS011;17915;52.540;13.604;2022-11-20T02:15:46;17.98;;;10.68;;
31282;SDS011;17915;52.540;13.604;2022-11-20T02:18:13;17.90;;;10.05;;
31282;SDS011;17915;52.540;13.604;2022-11-20T02:20:41;20.83;;;11.02;;
31282;SDS011;17915;52.540;13.604;2022-11-20T02:25:43;19.33;;;9.95;;
31282;SDS011;17915;52.540;13.604;2022-11-20T02:28:08;16.37;;;11.37;;
31282;SDS011;17915;52.540;13.604;2022-11-20T02:30:34;19.67;;;10.93;;
31282;SDS011;17915;52.540;13.604;2022-11-20T02:33:00;20.63;;;11.97;;
31282;SDS011;17915;52.540;13.604;2022-11-20T02:37:51;22.70;;;10.10;;
31282;SDS011;17915;52.540;13.604;2022-11-20T02:40:18;15.82;;;9.85;;
31282;SDS011;17915;52.540;13.604;2022-11-20T02:42:44;17.27;;;9.88;;
31282;SDS011;17915;52.540;13.604;2022-11-20T02:45:09;21.93;;;10.37;;
31282;SDS011;17915;52.540;13.604;2022-11-20T02:47:35;17.60;;;10.27;;
31282;SDS011;17915;52.540;13.604;2022-11-20T02:50:00;19.13;;;10.17;;
31282;SDS011;17915;52.540;13.604;2022-11-20T02:52:26;16.25;;;10.15;;
31282;SDS011;17915;52.540;13.604;2022-11-20T02:54:52;17.37;;;10.27;;
31282;SDS011;17915;52.540;13.604;2022-11-20T02:57:17;21.65;;;12.52;;
31282;SDS011;17915;52.540;13.604;2022-11-20T02:59:43;19.30;;;10.20;;
31282;SDS011;17915;52.540;13.604;2022-11-20T03:02:08;19.47;;;11.47;;
31282;SDS011;17915;52.540;13.604;2022-11-20T03:04:33;17.43;;;10.20;;
31282;SDS011;17915;52.540;13.604;2022-11-20T03:06:59;16.27;;;9.47;;
31282;SDS011;17915;52.540;13.604;2022-11-20T03:09:24;20.80;;;11.50;;
31282;SDS011;17915;52.540;13.604;2022-11-20T03:11:49;17.37;;;11.47;;
31282;SDS011;17915;52.540;13.604;2022-11-20T03:14:15;15.07;;;9.87;;
31282;SDS011;17915;52.540;13.604;2022-11-20T03:16:40;20.00;;;11.07;;
31282;SDS011;17915;52.540;13.604;2022-11-20T03:19:06;18.73;;;11.27;;
31282;SDS011;17915;52.540;13.604;2022-11-20T03:21:34;16.83;;;10.70;;
31282;SDS011;17915;52.540;13.604;2022-11-20T03:24:00;21.17;;;11.15;;
31282;SDS011;17915;52.540;13.604;2022-11-20T03:26:26;17.63;;;11.23;;
31282;SDS011;17915;52.540;13.604;2022-11-20T03:28:56;16.95;;;11.05;;
31282;SDS011;17915;52.540;13.604;2022-11-20T03:31:23;21.67;;;12.23;;
31282;SDS011;17915;52.540;13.604;2022-11-20T03:33:53;16.17;;;11.32;;
31282;SDS011;17915;52.540;13.604;2022-11-20T03:36:19;18.73;;;11.10;;
31282;SDS011;17915;52.540;13.604;2022-11-20T03:38:45;19.70;;;10.65;;
31282;SDS011;17915;52.540;13.604;2022-11-20T03:41:12;16.38;;;11.00;;
31282;SDS011;17915;52.540;13.604;2022-11-20T03:43:38;18.05;;;12.38;;
31282;SDS011;17915;52.540;13.604;2022-11-20T03:46:04;21.25;;;11.52;;
31282;SDS011;17915;52.540;13.604;2022-11-20T03:48:30;15.73;;;9.82;;
31282;SDS011;17915;52.540;13.604;2022-11-20T03:51:06;20.25;;;11.88;;
31282;SDS011;17915;52.540;13.604;2022-11-20T03:53:53;18.35;;;12.63;;
31282;SDS011;17915;52.540;13.604;2022-11-20T03:56:22;20.25;;;12.32;;
31282;SDS011;17915;52.540;13.604;2022-11-20T03:58:49;16.88;;;11.10;;
31282;SDS011;17915;52.540;13.604;2022-11-20T04:01:16;14.90;;;10.03;;
31282;SDS011;17915;52.540;13.604;2022-11-20T04:03:43;14.60;;;10.55;;
31282;SDS011;17915;52.540;13.604;2022-11-20T04:06:10;16.02;;;10.88;;
31282;SDS011;17915;52.540;13.604;2022-11-20T04:08:40;21.48;;;12.20;;
31282;SDS011;17915;52.540;13.604;2022-11-20T04:11:18;23.30;;;12.05;;
31282;SDS011;17915;52.540;13.604;2022-11-20T04:13:46;17.17;;;11.02;;
31282;SDS011;17915;52.540;13.604;2022-11-20T04:16:13;19.15;;;10.48;;
31282;SDS011;17915;52.540;13.604;2022-11-20T04:18:38;19.70;;;11.77;;
31282;SDS011;17915;52.540;13.604;2022-11-20T04:21:04;17.30;;;11.33;;
31282;SDS011;17915;52.540;13.604;2022-11-20T04:26:00;20.42;;;12.32;;
31282;SDS011;17915;52.540;13.604;2022-11-20T04:28:27;16.25;;;10.85;;
31282;SDS011;17915;52.540;13.604;2022-11-20T04:30:52;25.17;;;12.80;;
31282;SDS011;17915;52.540;13.604;2022-11-20T04:33:17;19.87;;;12.53;;
31282;SDS011;17915;52.540;13.604;2022-11-20T04:35:43;21.83;;;11.07;;
31282;SDS011;17915;52.540;13.604;2022-11-20T04:38:11;21.38;;;12.68;;
31282;SDS011;17915;52.540;13.604;2022-11-20T04:40:37;18.33;;;11.35;;
31282;SDS011;17915;52.540;13.604;2022-11-20T04:43:02;16.33;;;10.43;;
31282;SDS011;17915;52.540;13.604;2022-11-20T04:45:28;21.77;;;12.67;;
31282;SDS011;17915;52.540;13.604;2022-11-20T04:47:53;20.87;;;12.93;;
31282;SDS011;17915;52.540;13.604;2022-11-20T04:50:19;22.93;;;12.67;;
31282;SDS011;17915;52.540;13.604;2022-11-20T04:52:44;20.37;;;12.03;;
31282;SDS011;17915;52.540;13.604;2022-11-20T04:55:09;21.83;;;12.07;;
31282;SDS011;17915;52.540;13.604;2022-11-20T04:57:35;20.17;;;11.57;;
31282;SDS011;17915;52.540;13.604;2022-11-20T05:00:00;17.97;;;12.07;;
31282;SDS011;17915;52.540;13.604;2022-11-20T05:02:25;20.83;;;11.73;;
31282;SDS011;17915;52.540;13.604;2022-11-20T05:04:51;23.83;;;14.20;;
31282;SDS011;17915;52.540;13.604;2022-11-20T05:07:16;21.43;;;11.90;;
31282;SDS011;17915;52.540;13.604;2022-11-20T05:09:42;25.57;;;13.70;;
31282;SDS011;17915;52.540;13.604;2022-11-20T05:12:07;16.93;;;11.73;;
31282;SDS011;17915;52.540;13.604;2022-11-20T05:14:34;16.73;;;11.23;;
31282;SDS011;17915;52.540;13.604;2022-11-20T05:16:59;19.50;;;11.85;;
31282;SDS011;17915;52.540;13.604;2022-11-20T05:19:25;23.70;;;11.30;;
31282;SDS011;17915;52.540;13.604;2022-11-20T05:21:50;19.43;;;12.20;;
31282;SDS011;17915;52.540;13.604;2022-11-20T05:24:15;16.70;;;11.00;;
31282;SDS011;17915;52.540;13.604;2022-11-20T05:26:41;21.70;;;13.17;;
31282;SDS011;17915;52.540;13.604;2022-11-20T05:29:06;24.07;;;13.17;;
31282;SDS011;17915;52.540;13.604;2022-11-20T05:31:32;20.50;;;12.10;;
31282;SDS011;17915;52.540;13.604;2022-11-20T05:33:57;20.53;;;12.43;;
31282;SDS011;17915;52.540;13.604;2022-11-20T05:36:23;22.87;;;13.00;;
31282;SDS011;17915;52.540;13.604;2022-11-20T05:38:48;19.52;;;11.82;;
31282;SDS011;17915;52.540;13.604;2022-11-20T05:41:15;22.37;;;12.13;;
31282;SDS011;17915;52.540;13.604;2022-11-20T05:43:42;19.33;;;11.90;;
31282;SDS011;17915;52.540;13.604;2022-11-20T05:46:10;18.38;;;11.93;;
31282;SDS011;17915;52.540;13.604;2022-11-20T05:48:37;20.58;;;12.00;;
31282;SDS011;17915;52.540;13.604;2022-11-20T05:53:29;19.73;;;12.10;;
31282;SDS011;17915;52.540;13.604;2022-11-20T05:56:05;26.70;;;15.63;;
31282;SDS011;17915;52.540;13.604;2022-11-20T06:03:45;20.42;;;13.30;;
31282;SDS011;17915;52.540;13.604;2022-11-20T06:06:13;18.85;;;11.30;;
31282;SDS011;17915;52.540;13.604;2022-11-20T06:08:39;18.52;;;12.70;;
31282;SDS011;17915;52.540;13.604;2022-11-20T06:11:05;32.50;;;16.17;;
31282;SDS011;17915;52.540;13.604;2022-11-20T06:13:32;24.77;;;12.73;;
31282;SDS011;17915;52.540;13.604;2022-11-20T06:15:57;26.37;;;12.67;;
31282;SDS011;17915;52.540;13.604;2022-11-20T06:18:22;23.20;;;11.60;;
31282;SDS011;17915;52.540;13.604;2022-11-20T06:20:48;17.30;;;11.10;;
31282;SDS011;17915;52.540;13.604;2022-11-20T06:23:13;22.03;;;13.27;;
31282;SDS011;17915;52.540;13.604;2022-11-20T06:25:39;19.90;;;12.13;;
31282;SDS011;17915;52.540;13.604;2022-11-20T06:28:05;18.48;;;11.70;;
31282;SDS011;17915;52.540;13.604;2022-11-20T06:30:31;26.10;;;13.73;;
31282;SDS011;17915;52.540;13.604;2022-11-20T06:32:56;22.97;;;12.07;;
31282;SDS011;17915;52.540;13.604;2022-11-20T06:35:22;21.27;;;12.43;;
31282;SDS011;17915;52.540;13.604;2022-11-20T06:37:47;18.87;;;11.83;;
31282;SDS011;17915;52.540;13.604;2022-11-20T06:40:12;21.10;;;11.97;;
31282;SDS011;17915;52.540;13.604;2022-11-20T06:42:38;17.20;;;11.17;;
31282;SDS011;17915;52.540;13.604;2022-11-20T06:45:03;19.83;;;12.67;;
31282;SDS011;17915;52.540;13.604;2022-11-20T06:47:29;23.70;;;13.23;;
31282;SDS011;17915;52.540;13.604;2022-11-20T06:49:54;21.87;;;11.73;;
31282;SDS011;17915;52.540;13.604;2022-11-20T06:52:19;21.40;;;11.83;;
31282;SDS011;17915;52.540;13.604;2022-11-20T06:54:45;23.37;;;12.63;;
31282;SDS011;17915;52.540;13.604;2022-11-20T06:57:10;17.93;;;10.77;;
31282;SDS011;17915;52.540;13.604;2022-11-20T06:59:35;22.10;;;12.40;;
31282;SDS011;17915;52.540;13.604;2022-11-20T07:02:01;24.53;;;12.73;;
31282;SDS011;17915;52.540;13.604;2022-11-20T07:04:27;21.48;;;13.15;;
31282;SDS011;17915;52.540;13.604;2022-11-20T07:06:52;23.40;;;11.10;;
31282;SDS011;17915;52.540;13.604;2022-11-20T07:09:17;17.97;;;10.93;;
31282;SDS011;17915;52.540;13.604;2022-11-20T07:11:43;21.27;;;12.47;;
31282;SDS011;17915;52.540;13.604;2022-11-20T07:14:08;18.73;;;12.10;;
31282;SDS011;17915;52.540;13.604;2022-11-20T07:16:33;20.93;;;12.33;;
31282;SDS011;17915;52.540;13.604;2022-11-20T07:18:59;19.23;;;12.07;;
31282;SDS011;17915;52.540;13.604;2022-11-20T07:21:24;18.83;;;11.47;;
31282;SDS011;17915;52.540;13.604;2022-11-20T07:23:49;23.43;;;12.67;;
31282;SDS011;17915;52.540;13.604;2022-11-20T07:26:15;42.53;;;15.20;;
31282;SDS011;17915;52.540;13.604;2022-11-20T07:28:44;22.00;;;12.55;;
31282;SDS011;17915;52.540;13.604;2022-11-20T07:31:10;22.38;;;12.50;;
31282;SDS011;17915;52.540;13.604;2022-11-20T07:33:36;21.67;;;12.07;;
31282;SDS011;17915;52.540;13.604;2022-11-20T07:36:02;18.90;;;11.75;;
31282;SDS011;17915;52.540;13.604;2022-11-20T07:38:28;18.52;;;11.50;;
31282;SDS011;17915;52.540;13.604;2022-11-20T07:40:57;25.83;;;12.23;;
31282;SDS011;17915;52.540;13.604;2022-11-20T07:43:23;21.08;;;13.48;;
31282;SDS011;17915;52.540;13.604;2022-11-20T07:45:49;20.08;;;12.43;;
31282;SDS011;17915;52.540;13.604;2022-11-20T07:48:14;22.93;;;12.60;;
31282;SDS011;17915;52.540;13.604;2022-11-20T07:50:40;19.07;;;12.03;;
31282;SDS011;17915;52.540;13.604;2022-11-20T07:53:05;17.30;;;11.33;;
31282;SDS011;17915;52.540;13.604;2022-11-20T07:55:31;20.30;;;11.00;;
31282;SDS011;17915;52.540;13.604;2022-11-20T07:57:57;23.05;;;12.30;;
31282;SDS011;17915;52.540;13.604;2022-11-20T08:00:23;20.13;;;11.80;;
31282;SDS011;17915;52.540;13.604;2022-11-20T08:02:49;19.05;;;11.07;;
31282;SDS011;17915;52.540;13.604;2022-11-20T08:05:14;19.80;;;12.43;;
31282;SDS011;17915;52.540;13.604;2022-11-20T08:07:41;21.77;;;13.27;;
31282;SDS011;17915;52.540;13.604;2022-11-20T08:10:08;22.83;;;13.43;;
31282;SDS011;17915;52.540;13.604;2022-11-20T08:12:35;21.73;;;12.98;;
31282;SDS011;17915;52.540;13.604;2022-11-20T08:15:20;20.15;;;11.85;;
31282;SDS011;17915;52.540;13.604;2022-11-20T08:17:45;21.83;;;13.90;;
31282;SDS011;17915;52.540;13.604;2022-11-20T08:20:10;21.60;;;12.73;;
31282;SDS011;17915;52.540;13.604;2022-11-20T08:22:36;18.53;;;11.73;;
31282;SDS011;17915;52.540;13.604;2022-11-20T08:25:01;21.00;;;12.40;;
31282;SDS011;17915;52.540;13.604;2022-11-20T08:27:27;19.50;;;12.33;;
31282;SDS011;17915;52.540;13.604;2022-11-20T08:29:52;21.70;;;12.40;;
31282;SDS011;17915;52.540;13.604;2022-11-20T08:32:18;18.03;;;11.30;;
31282;SDS011;17915;52.540;13.604;2022-11-20T08:34:43;20.57;;;13.30;;
31282;SDS011;17915;52.540;13.604;2022-11-20T08:37:08;19.23;;;11.40;;
31282;SDS011;17915;52.540;13.604;2022-11-20T08:39:34;17.63;;;10.60;;
31282;SDS011;17915;52.540;13.604;2022-11-20T08:41:59;30.37;;;13.43;;
31282;SDS011;17915;52.540;13.604;2022-11-20T08:44:24;23.67;;;13.47;;
31282;SDS011;17915;52.540;13.604;2022-11-20T08:46:50;22.93;;;13.20;;
31282;SDS011;17915;52.540;13.604;2022-11-20T08:49:15;22.27;;;13.50;;
31282;SDS011;17915;52.540;13.604;2022-11-20T08:51:41;20.40;;;14.20;;
31282;SDS011;17915;52.540;13.604;2022-11-20T08:54:06;23.10;;;12.43;;
31282;SDS011;17915;52.540;13.604;2022-11-20T08:56:32;25.37;;;11.70;;
31282;SDS011;17915;52.540;13.604;2022-11-20T08:58:58;20.10;;;11.97;;
31282;SDS011;17915;52.540;13.604;2022-11-20T09:01:26;19.75;;;12.45;;
31282;SDS011;17915;52.540;13.604;2022-11-20T09:03:52;22.95;;;12.55;;
31282;SDS011;17915;52.540;13.604;2022-11-20T09:06:17;20.93;;;13.13;;
31282;SDS011;17915;52.540;13.604;2022-11-20T09:08:43;18.83;;;12.13;;
31282;SDS011;17915;52.540;13.604;2022-11-20T09:11:08;26.03;;;13.10;;
31282;SDS011;17915;52.540;13.604;2022-11-20T09:13:34;21.37;;;13.17;;
31282;SDS011;17915;52.540;13.604;2022-11-20T09:16:01;19.90;;;13.20;;
31282;SDS011;17915;52.540;13.604;2022-11-20T09:18:31;24.10;;;13.55;;
31282;SDS011;17915;52.540;13.604;2022-11-20T09:21:01;21.17;;;12.98;;
31282;SDS011;17915;52.540;13.604;2022-11-20T09:23:30;28.80;;;13.70;;
31282;SDS011;17915;52.540;13.604;2022-11-20T09:25:56;25.00;;;14.88;;
31282;SDS011;17915;52.540;13.604;2022-11-20T09:28:25;28.33;;;15.73;;
31282;SDS011;17915;52.540;13.604;2022-11-20T09:30:51;22.27;;;13.50;;
31282;SDS011;17915;52.540;13.604;2022-11-20T09:33:16;20.10;;;12.33;;
31282;SDS011;17915;52.540;13.604;2022-11-20T09:35:42;23.90;;;12.63;;
31282;SDS011;17915;52.540;13.604;2022-11-20T09:38:08;24.63;;;12.50;;
31282;SDS011;17915;52.540;13.604;2022-11-20T09:40:36;24.10;;;14.48;;
31282;SDS011;17915;52.540;13.604;2022-11-20T09:45:54;19.30;;;13.18;;
31282;SDS011;17915;52.540;13.604;2022-11-20T09:51:30;21.92;;;12.50;;
31282;SDS011;17915;52.540;13.604;2022-11-20T09:56:47;25.02;;;14.68;;
31282;SDS011;17915;52.540;13.604;2022-11-20T10:02:48;20.20;;;13.43;;
31282;SDS011;17915;52.540;13.604;2022-11-20T10:05:03;22.25;;;13.05;;
31282;SDS011;17915;52.540;13.604;2022-11-20T10:07:40;26.00;;;12.30;;
31282;SDS011;17915;52.540;13.604;2022-11-20T10:10:15;17.73;;;11.70;;
31282;SDS011;17915;52.540;13.604;2022-11-20T10:29:34;19.63;;;10.82;;
31282;SDS011;17915;52.540;13.604;2022-11-20T10:32:03;17.08;;;10.93;;
31282;SDS011;17915;52.540;13.604;2022-11-20T10:37:25;16.00;;;11.68;;
31282;SDS011;17915;52.540;13.604;2022-11-20T10:39:59;18.33;;;11.60;;
31282;SDS011;17915;52.540;13.604;2022-11-20T10:47:48;16.85;;;12.25;;
31282;SDS011;17915;52.540;13.604;2022-11-20T10:50:16;18.27;;;13.13;;
31282;SDS011;17915;52.540;13.604;2022-11-20T11:00:33;23.80;;;12.50;;
31282;SDS011;17915;52.540;13.604;2022-11-20T11:02:59;18.37;;;12.70;;
31282;SDS011;17915;52.540;13.604;2022-11-20T11:05:33;18.48;;;11.15;;
31282;SDS011;17915;52.540;13.604;2022-11-20T11:08:01;22.15;;;13.05;;
31282;SDS011;17915;52.540;13.604;2022-11-20T11:12:53;23.58;;;13.25;;
31282;SDS011;17915;52.540;13.604;2022-11-20T11:15:29;16.43;;;11.00;;
31282;SDS011;17915;52.540;13.604;2022-11-20T11:17:54;21.58;;;13.20;;
31282;SDS011;17915;52.540;13.604;2022-11-20T11:20:21;18.93;;;12.67;;
31282;SDS011;17915;52.540;13.604;2022-11-20T11:22:49;20.55;;;13.15;;
31282;SDS011;17915;52.540;13.604;2022-11-20T11:25:35;17.88;;;12.02;;
31282;SDS011;17915;52.540;13.604;2022-11-20T11:28:02;19.30;;;12.85;;
31282;SDS011;17915;52.540;13.604;2022-11-20T11:30:30;19.23;;;10.93;;
31282;SDS011;17915;52.540;13.604;2022-11-20T11:33:08;19.35;;;12.23;;
31282;SDS011;17915;52.540;13.604;2022-11-20T11:35:38;20.33;;;13.07;;
31282;SDS011;17915;52.540;13.604;2022-11-20T11:38:14;19.05;;;11.73;;
31282;SDS011;17915;52.540;13.604;2022-11-20T11:40:42;21.23;;;11.88;;
31282;SDS011;17915;52.540;13.604;2022-11-20T11:43:16;19.33;;;12.48;;
31282;SDS011;17915;52.540;13.604;2022-11-20T11:46:03;18.45;;;11.52;;
31282;SDS011;17915;52.540;13.604;2022-11-20T11:49:01;23.88;;;12.82;;
31282;SDS011;17915;52.540;13.604;2022-11-20T11:54:03;22.00;;;12.07;;
31282;SDS011;17915;52.540;13.604;2022-11-20T11:56:37;17.13;;;11.30;;
31282;SDS011;17915;52.540;13.604;2022-11-20T11:59:04;18.13;;;12.30;;
31282;SDS011;17915;52.540;13.604;2022-11-20T12:01:42;19.48;;;11.93;;
31282;SDS011;17915;52.540;13.604;2022-11-20T12:04:13;19.40;;;12.40;;
31282;SDS011;17915;52.540;13.604;2022-11-20T12:06:51;17.88;;;12.07;;
31282;SDS011;17915;52.540;13.604;2022-11-20T12:09:37;16.13;;;11.23;;
31282;SDS011;17915;52.540;13.604;2022-11-20T12:12:12;15.73;;;10.77;;
31282;SDS011;17915;52.540;13.604;2022-11-20T12:14:43;15.70;;;11.38;;
31282;SDS011;17915;52.540;13.604;2022-11-20T12:17:12;18.20;;;11.10;;
31282;SDS011;17915;52.540;13.604;2022-11-20T12:19:38;16.52;;;11.25;;
31282;SDS011;17915;52.540;13.604;2022-11-20T12:30:09;15.20;;;10.77;;
31282;SDS011;17915;52.540;13.604;2022-11-20T12:38:19;21.27;;;12.18;;
31282;SDS011;17915;52.540;13.604;2022-11-20T12:44:13;19.92;;;11.68;;
31282;SDS011;17915;52.540;13.604;2022-11-20T12:47:12;17.63;;;10.73;;
31282;SDS011;17915;52.540;13.604;2022-11-20T12:49:47;12.82;;;10.23;;
31282;SDS011;17915;52.540;13.604;2022-11-20T12:52:20;15.80;;;11.20;;
31282;SDS011;17915;52.540;13.604;2022-11-20T12:57:38;17.63;;;12.02;;
31282;SDS011;17915;52.540;13.604;2022-11-20T13:00:23;18.05;;;12.23;;
31282;SDS011;17915;52.540;13.604;2022-11-20T13:08:48;18.15;;;12.02;;
31282;SDS011;17915;52.540;13.604;2022-11-20T13:14:34;18.52;;;12.10;;
31282;SDS011;17915;52.540;13.604;2022-11-20T13:19:12;20.75;;;12.70;;
31282;SDS011;17915;52.540;13.604;2022-11-20T13:24:21;20.40;;;11.13;;
31282;SDS011;17915;52.540;13.604;2022-11-20T13:26:59;20.00;;;12.27;;
31282;SDS011;17915;52.540;13.604;2022-11-20T13:29:46;22.60;;;11.75;;
31282;SDS011;17915;52.540;13.604;2022-11-20T13:32:23;20.50;;;12.40;;
31282;SDS011;17915;52.540;13.604;2022-11-20T13:34:52;22.00;;;12.73;;
31282;SDS011;17915;52.540;13.604;2022-11-20T13:37:29;18.83;;;12.10;;
31282;SDS011;17915;52.540;13.604;2022-11-20T13:42:33;15.27;;;9.98;;
31282;SDS011;17915;52.540;13.604;2022-11-20T13:45:01;14.80;;;9.38;;
31282;SDS011;17915;52.540;13.604;2022-11-20T13:47:28;11.30;;;9.45;;
31282;SDS011;17915;52.540;13.604;2022-11-20T13:49:57;11.60;;;9.63;;
31282;SDS011;17915;52.540;13.604;2022-11-20T13:58:04;12.07;;;6.88;;
31282;SDS011;17915;52.540;13.604;2022-11-20T14:00:56;9.32;;;7.07;;
31282;SDS011;17915;52.540;13.604;2022-11-20T14:03:22;13.43;;;8.13;;
31282;SDS011;17915;52.540;13.604;2022-11-20T14:05:50;11.98;;;6.70;;
31282;SDS011;17915;52.540;13.604;2022-11-20T14:08:25;8.93;;;6.88;;
31282;SDS011;17915;52.540;13.604;2022-11-20T14:11:03;12.93;;;6.63;;
31282;SDS011;17915;52.540;13.604;2022-11-20T14:13:39;9.57;;;6.78;;
31282;SDS011;17915;52.540;13.604;2022-11-20T14:16:04;12.30;;;7.10;;
31282;SDS011;17915;52.540;13.604;2022-11-20T14:18:29;10.53;;;6.50;;
31282;SDS011;17915;52.540;13.604;2022-11-20T14:20:55;13.70;;;7.00;;
31282;SDS011;17915;52.540;13.604;2022-11-20T14:23:26;9.20;;;7.60;;
31282;SDS011;17915;52.540;13.604;2022-11-20T14:25:52;13.23;;;7.80;;
31282;SDS011;17915;52.540;13.604;2022-11-20T14:28:24;9.47;;;7.43;;
31282;SDS011;17915;52.540;13.604;2022-11-20T14:30:51;11.15;;;7.75;;
31282;SDS011;17915;52.540;13.604;2022-11-20T14:33:17;13.57;;;8.20;;
31282;SDS011;17915;52.540;13.604;2022-11-20T14:35:48;10.52;;;6.32;;
31282;SDS011;17915;52.540;13.604;2022-11-20T14:38:16;9.98;;;7.70;;
31282;SDS011;17915;52.540;13.604;2022-11-20T14:40:43;18.73;;;9.75;;
31282;SDS011;17915;52.540;13.604;2022-11-20T14:43:22;12.70;;;8.97;;
31282;SDS011;17915;52.540;13.604;2022-11-20T14:45:54;20.83;;;10.98;;
31282;SDS011;17915;52.540;13.604;2022-11-20T14:48:25;15.85;;;10.02;;
31282;SDS011;17915;52.540;13.604;2022-11-20T14:50:54;19.63;;;10.48;;
31282;SDS011;17915;52.540;13.604;2022-11-20T14:53:23;14.53;;;9.30;;
31282;SDS011;17915;52.540;13.604;2022-11-20T14:55:54;17.42;;;8.88;;
31282;SDS011;17915;52.540;13.604;2022-11-20T14:58:22;20.98;;;12.10;;
31282;SDS011;17915;52.540;13.604;2022-11-20T15:03:21;15.63;;;10.50;;
31282;SDS011;17915;52.540;13.604;2022-11-20T15:05:47;15.03;;;9.30;;
31282;SDS011;17915;52.540;13.604;2022-11-20T15:08:13;11.02;;;8.57;;
31282;SDS011;17915;52.540;13.604;2022-11-20T15:10:44;13.95;;;8.82;;
31282;SDS011;17915;52.540;13.604;2022-11-20T15:13:11;11.45;;;7.72;;
31282;SDS011;17915;52.540;13.604;2022-11-20T15:18:15;21.10;;;9.35;;
31282;SDS011;17915;52.540;13.604;2022-11-20T15:20:42;14.10;;;8.73;;
31282;SDS011;17915;52.540;13.604;2022-11-20T15:23:11;12.05;;;8.10;;
31282;SDS011;17915;52.540;13.604;2022-11-20T15:25:39;11.77;;;7.03;;
31282;SDS011;17915;52.540;13.604;2022-11-20T15:30:33;13.73;;;7.15;;
31282;SDS011;17915;52.540;13.604;2022-11-20T15:32:58;13.17;;;8.63;;
31282;SDS011;17915;52.540;13.604;2022-11-20T15:35:23;13.27;;;7.67;;
31282;SDS011;17915;52.540;13.604;2022-11-20T15:37:49;12.33;;;7.10;;
31282;SDS011;17915;52.540;13.604;2022-11-20T15:40:14;13.17;;;8.83;;
31282;SDS011;17915;52.540;13.604;2022-11-20T15:42:39;16.10;;;7.60;;
31282;SDS011;17915;52.540;13.604;2022-11-20T15:45:25;12.20;;;7.50;;
31282;SDS011;17915;52.540;13.604;2022-11-20T15:47:51;10.63;;;7.30;;
31282;SDS011;17915;52.540;13.604;2022-11-20T15:50:16;13.60;;;7.80;;
31282;SDS011;17915;52.540;13.604;2022-11-20T15:52:42;15.45;;;7.45;;
31282;SDS011;17915;52.540;13.604;2022-11-20T15:55:09;15.73;;;8.67;;
31282;SDS011;17915;52.540;13.604;2022-11-20T15:57:35;18.50;;;9.88;;
31282;SDS011;17915;52.540;13.604;2022-11-20T16:00:00;12.03;;;7.97;;
31282;SDS011;17915;52.540;13.604;2022-11-20T16:02:26;14.13;;;8.23;;
31282;SDS011;17915;52.540;13.604;2022-11-20T16:04:51;13.77;;;7.77;;
31282;SDS011;17915;52.540;13.604;2022-11-20T16:07:16;16.83;;;7.73;;
31282;SDS011;17915;52.540;13.604;2022-11-20T16:09:42;12.43;;;8.10;;
31282;SDS011;17915;52.540;13.604;2022-11-20T16:12:08;16.60;;;8.60;;
31282;SDS011;17915;52.540;13.604;2022-11-20T16:14:54;14.75;;;8.90;;